Cadys Falls, Vermont
Current Conditions -  °F | °C
As of 12:51 PM on Saturday 22 Nov 2014 (Local Time) from KMPV Reporting Station
Clear Clear  
Wind Chill: 27°   Ceiling: Unl
Heat Index: 33°   Visibility: 10mi
Dew Point:   Wind: 7mph
Humidity: 37%   Direction: 160°SSE
Pressure: 30.07"   Gusts: NA
Location:  44.5482°N, 72.6315°W
Report Text: KMPV 221751Z AUTO 16006KT 10SM CLR 01/M13 A3007 RMK AO2 SLP200 T00061128 10006 21078 58041
Loading
Personal Weather Stations






























Interactive Weather Map New forecast layout! Learn more

10-Day Weather Forecast

Advertisements
Track Severe Weather on mobile